createdAt,value
2022-08-26T00:00:47.315Z,1007.4
2022-08-26T00:01:56.499Z,1007.4
2022-08-26T00:03:05.669Z,1007.5
2022-08-26T00:04:14.857Z,1007.5
2022-08-26T00:05:24.007Z,1007.4
2022-08-26T00:06:33.183Z,1007.4
2022-08-26T00:07:42.365Z,1007.5
2022-08-26T00:08:50.545Z,1007.5
2022-08-26T00:09:59.718Z,1007.5
2022-08-26T00:11:08.895Z,1007.5
2022-08-26T00:12:18.061Z,1007.5
2022-08-26T00:13:27.235Z,1007.5
2022-08-26T00:14:36.434Z,1007.5
2022-08-26T00:15:45.597Z,1007.5
2022-08-26T00:16:54.758Z,1007.5
2022-08-26T00:18:03.927Z,1007.5
2022-08-26T00:19:13.097Z,1007.5
2022-08-26T00:20:22.275Z,1007.5
2022-08-26T00:21:31.449Z,1007.5
2022-08-26T00:22:40.620Z,1007.5
2022-08-26T00:23:48.793Z,1007.5
2022-08-26T00:24:57.974Z,1007.5
2022-08-26T00:27:16.312Z,1007.6
2022-08-26T00:28:25.488Z,1007.6
2022-08-26T00:29:33.676Z,1007.6
2022-08-26T00:30:42.857Z,1007.6
2022-08-26T00:31:52.022Z,1007.6
2022-08-26T00:33:01.201Z,1007.6
2022-08-26T00:34:10.378Z,1007.5
2022-08-26T00:35:19.532Z,1007.5
2022-08-26T00:36:28.724Z,1007.5
2022-08-26T00:37:37.884Z,1007.5
2022-08-26T00:38:47.056Z,1007.5
2022-08-26T00:39:56.228Z,1007.4
2022-08-26T00:41:05.406Z,1007.4
2022-08-26T00:42:14.575Z,1007.4
2022-08-26T00:43:23.747Z,1007.4
2022-08-26T00:44:31.942Z,1007.4
2022-08-26T00:45:41.106Z,1007.4
2022-08-26T00:46:50.277Z,1007.5
2022-08-26T00:47:59.447Z,1007.4
2022-08-26T00:49:08.623Z,1007.4
2022-08-26T00:50:17.794Z,1007.4
2022-08-26T00:51:26.976Z,1007.4
2022-08-26T00:52:36.146Z,1007.4
2022-08-26T00:53:45.323Z,1007.4
2022-08-26T00:54:54.475Z,1007.4
2022-08-26T00:56:03.669Z,1007.5
2022-08-26T00:57:12.833Z,1007.5
2022-08-26T00:58:22.013Z,1007.5
2022-08-26T00:59:30.191Z,1007.6
2022-08-26T01:00:39.361Z,1007.5
2022-08-26T01:01:48.530Z,1007.5
2022-08-26T01:02:57.725Z,1007.5
2022-08-26T01:04:06.875Z,1007.6
2022-08-26T01:05:16.045Z,1007.5
2022-08-26T01:06:25.218Z,1007.5
2022-08-26T01:07:34.393Z,1007.5
2022-08-26T01:08:43.561Z,1007.5
2022-08-26T01:09:52.729Z,1007.5
2022-08-26T01:11:01.913Z,1007.5
2022-08-26T01:12:11.084Z,1007.5
2022-08-26T01:13:20.256Z,1007.4
2022-08-26T01:14:28.447Z,1007.5
2022-08-26T01:15:37.617Z,1007.4
2022-08-26T01:16:46.781Z,1007.5
2022-08-26T01:17:55.972Z,1007.4
2022-08-26T01:19:05.134Z,1007.4
2022-08-26T01:20:14.308Z,1007.4
2022-08-26T01:21:23.499Z,1007.4
2022-08-26T01:22:32.661Z,1007.4
2022-08-26T01:23:41.834Z,1007.4
2022-08-26T01:24:51.007Z,1007.5
2022-08-26T01:26:00.169Z,1007.5
2022-08-26T01:27:09.339Z,1007.5
2022-08-26T01:28:18.542Z,1007.6
2022-08-26T01:29:26.708Z,1007.6
2022-08-26T01:30:35.887Z,1007.6
2022-08-26T01:31:45.057Z,1007.5
2022-08-26T01:32:54.230Z,1007.5
2022-08-26T01:34:03.399Z,1007.5
2022-08-26T01:35:12.572Z,1007.6
2022-08-26T01:36:21.767Z,1007.6
2022-08-26T01:37:30.910Z,1007.6
2022-08-26T01:38:40.088Z,1007.7
2022-08-26T01:39:49.267Z,1007.8
2022-08-26T01:40:58.433Z,1007.8
2022-08-26T01:42:07.607Z,1007.8
2022-08-26T01:43:16.789Z,1007.8
2022-08-26T01:44:24.974Z,1007.8
2022-08-26T01:45:34.129Z,1007.7
2022-08-26T01:46:43.311Z,1007.7
2022-08-26T01:47:52.491Z,1007.7
2022-08-26T01:49:01.655Z,1007.7
2022-08-26T01:50:10.828Z,1007.8
2022-08-26T01:51:19.998Z,1007.8
2022-08-26T01:52:29.178Z,1007.8
2022-08-26T01:53:38.384Z,1007.9
2022-08-26T01:54:47.513Z,1007.9
2022-08-26T01:55:56.681Z,1007.9
2022-08-26T01:57:05.859Z,1007.9
2022-08-26T01:58:15.034Z,1007.8
2022-08-26T01:59:24.225Z,1007.9
2022-08-26T02:00:32.402Z,1007.9
2022-08-26T02:01:41.568Z,1007.8
2022-08-26T02:02:50.744Z,1007.8
2022-08-26T02:03:59.909Z,1007.8
2022-08-26T02:05:09.121Z,1007.8
2022-08-26T02:06:18.261Z,1007.8
2022-08-26T02:07:27.437Z,1007.8
2022-08-26T02:08:36.622Z,1007.8
2022-08-26T02:09:45.788Z,1007.8
2022-08-26T02:10:54.953Z,1007.8
2022-08-26T02:12:04.126Z,1007.8
2022-08-26T02:13:13.305Z,1007.8
2022-08-26T02:14:22.480Z,1007.8
2022-08-26T02:15:30.669Z,1007.8
2022-08-26T02:16:39.843Z,1007.8
2022-08-26T02:17:49.007Z,1007.8
2022-08-26T02:18:58.183Z,1007.8
2022-08-26T02:20:07.359Z,1007.7
2022-08-26T02:21:16.529Z,1007.8
2022-08-26T02:22:25.704Z,1007.8
2022-08-26T02:23:34.869Z,1007.7
2022-08-26T02:24:44.048Z,1007.8
2022-08-26T02:25:53.209Z,1007.7
2022-08-26T02:27:02.390Z,1007.7
2022-08-26T02:28:11.557Z,1007.7
2022-08-26T02:29:20.740Z,1007.7
2022-08-26T02:30:28.920Z,1007.7
2022-08-26T02:31:38.086Z,1007.7
2022-08-26T02:32:47.274Z,1007.7
2022-08-26T02:33:56.460Z,1007.7
2022-08-26T02:35:05.611Z,1007.7
2022-08-26T02:36:14.793Z,1007.7
2022-08-26T02:37:23.961Z,1007.7
2022-08-26T02:38:33.133Z,1007.7
2022-08-26T02:39:42.308Z,1007.7
2022-08-26T02:40:51.483Z,1007.7
2022-08-26T02:42:00.657Z,1007.8
2022-08-26T02:43:09.827Z,1007.8
2022-08-26T02:44:18.996Z,1007.8
2022-08-26T02:46:36.354Z,1007.8
2022-08-26T02:47:45.549Z,1007.8
2022-08-26T02:48:54.748Z,1007.8
2022-08-26T02:50:03.875Z,1007.8
2022-08-26T02:51:13.051Z,1007.8
2022-08-26T02:52:22.227Z,1007.8
2022-08-26T02:53:31.392Z,1007.9
2022-08-26T02:54:40.600Z,1007.8
2022-08-26T02:55:49.731Z,1007.8
2022-08-26T02:56:58.906Z,1007.8
2022-08-26T02:58:08.094Z,1007.7
2022-08-26T02:59:17.268Z,1007.7
2022-08-26T03:00:25.444Z,1007.7
2022-08-26T03:01:34.618Z,1007.7
2022-08-26T03:02:43.785Z,1007.7
2022-08-26T03:03:52.961Z,1007.7
2022-08-26T03:05:02.148Z,1007.7
2022-08-26T03:06:11.306Z,1007.7
2022-08-26T03:07:20.482Z,1007.7
2022-08-26T03:08:29.643Z,1007.7
2022-08-26T03:09:38.820Z,1007.7
2022-08-26T03:10:47.996Z,1007.7
2022-08-26T03:11:57.165Z,1007.7
2022-08-26T03:13:06.344Z,1007.7
2022-08-26T03:14:15.519Z,1007.7
2022-08-26T03:15:24.699Z,1007.7
2022-08-26T03:16:33.866Z,1007.8
2022-08-26T03:17:42.056Z,1007.7
2022-08-26T03:18:51.219Z,1007.7
2022-08-26T03:20:00.386Z,1007.7
2022-08-26T03:21:09.567Z,1007.7
2022-08-26T03:22:18.746Z,1007.7
2022-08-26T03:23:27.921Z,1007.7
2022-08-26T03:24:37.096Z,1007.7
2022-08-26T03:25:46.250Z,1007.7
2022-08-26T03:26:55.428Z,1007.7
2022-08-26T03:28:04.624Z,1007.7
2022-08-26T03:29:13.776Z,1007.7
2022-08-26T03:30:22.944Z,1007.7
2022-08-26T03:31:32.127Z,1007.7
2022-08-26T03:32:40.308Z,1007.7
2022-08-26T03:33:49.484Z,1007.7
2022-08-26T03:34:58.658Z,1007.7
2022-08-26T03:36:07.837Z,1007.6
2022-08-26T03:37:17.000Z,1007.7
2022-08-26T03:38:26.177Z,1007.6
2022-08-26T03:39:35.341Z,1007.6
2022-08-26T03:40:44.522Z,1007.6
2022-08-26T03:41:53.690Z,1007.6
2022-08-26T03:43:02.871Z,1007.7
2022-08-26T03:44:12.037Z,1007.7
2022-08-26T03:45:21.211Z,1007.7
2022-08-26T03:46:30.392Z,1007.7
2022-08-26T03:47:38.570Z,1007.7
2022-08-26T03:48:47.746Z,1007.7
2022-08-26T03:49:56.912Z,1007.7
2022-08-26T03:51:06.092Z,1007.7
2022-08-26T03:52:15.263Z,1007.7
2022-08-26T03:53:24.431Z,1007.7
2022-08-26T03:54:33.602Z,1007.7
2022-08-26T03:55:42.770Z,1007.8
2022-08-26T03:56:51.964Z,1007.8
2022-08-26T03:58:01.123Z,1007.8
2022-08-26T03:59:10.291Z,1007.8
2022-08-26T04:00:19.469Z,1007.8
2022-08-26T04:01:28.654Z,1007.9
2022-08-26T04:02:36.841Z,1007.9
2022-08-26T04:03:46.006Z,1007.8
2022-08-26T04:04:55.172Z,1007.9
2022-08-26T04:06:04.355Z,1007.9
2022-08-26T04:07:13.513Z,1007.8
2022-08-26T04:08:22.698Z,1007.9
2022-08-26T04:09:31.870Z,1007.8
2022-08-26T04:10:41.040Z,1007.9
2022-08-26T04:11:50.211Z,1007.9
2022-08-26T04:12:59.385Z,1007.8
2022-08-26T04:14:08.560Z,1007.8
2022-08-26T04:15:17.741Z,1007.8
2022-08-26T04:16:26.908Z,1007.8
2022-08-26T04:17:36.070Z,1007.8
2022-08-26T04:18:45.241Z,1007.9
2022-08-26T04:19:53.431Z,1007.9
2022-08-26T04:21:01.643Z,1007.8
2022-08-26T04:22:10.805Z,1007.9
2022-08-26T04:23:19.977Z,1007.8
2022-08-26T04:24:29.149Z,1007.8
2022-08-26T04:25:38.320Z,1007.8
2022-08-26T04:26:47.490Z,1007.8
2022-08-26T04:27:56.669Z,1007.8
2022-08-26T04:29:05.841Z,1007.8
2022-08-26T04:30:15.013Z,1007.8
2022-08-26T04:31:24.178Z,1007.8
2022-08-26T04:32:33.350Z,1007.8
2022-08-26T04:33:42.516Z,1007.9
2022-08-26T04:34:51.696Z,1007.8
2022-08-26T04:35:59.881Z,1007.9
2022-08-26T04:37:09.057Z,1007.8
2022-08-26T04:38:18.230Z,1007.9
2022-08-26T04:39:27.404Z,1007.9
2022-08-26T04:40:36.576Z,1007.9
2022-08-26T04:41:45.762Z,1007.9
2022-08-26T04:42:54.927Z,1007.8
2022-08-26T04:44:04.096Z,1007.9
2022-08-26T04:45:13.269Z,1007.8
2022-08-26T04:46:22.439Z,1007.8
2022-08-26T04:47:31.611Z,1007.8
2022-08-26T04:48:40.784Z,1007.8
2022-08-26T04:49:49.960Z,1007.9
2022-08-26T04:50:58.143Z,1007.9
2022-08-26T04:52:07.337Z,1007.9
2022-08-26T04:53:16.491Z,1007.9
2022-08-26T04:54:25.671Z,1008
2022-08-26T04:55:34.840Z,1008
2022-08-26T04:56:44.014Z,1008
2022-08-26T04:57:53.180Z,1008
2022-08-26T04:59:02.351Z,1008
2022-08-26T05:00:11.536Z,1008
2022-08-26T05:01:20.710Z,1008
2022-08-26T05:02:29.873Z,1008
2022-08-26T05:03:39.043Z,1008.1
2022-08-26T05:04:48.230Z,1008
2022-08-26T05:05:56.410Z,1008.1
2022-08-26T05:07:05.572Z,1008.1
2022-08-26T05:08:14.747Z,1008.1
2022-08-26T05:09:23.922Z,1008.1
2022-08-26T05:10:33.109Z,1008.1
2022-08-26T05:11:42.272Z,1008.1
2022-08-26T05:12:51.474Z,1008.1
2022-08-26T05:14:00.612Z,1008.1
2022-08-26T05:15:09.793Z,1008.1
2022-08-26T05:16:18.963Z,1008.2
2022-08-26T05:17:28.140Z,1008.1
2022-08-26T05:18:37.302Z,1008.1
2022-08-26T05:19:46.498Z,1008.1
2022-08-26T05:20:54.685Z,1008.1
2022-08-26T05:22:03.836Z,1008.1
2022-08-26T05:23:13.012Z,1008.1
2022-08-26T05:24:22.192Z,1008.1
2022-08-26T05:25:31.354Z,1008.1
2022-08-26T05:26:40.545Z,1008.1
2022-08-26T05:27:49.701Z,1008.1
2022-08-26T05:28:58.889Z,1008
2022-08-26T05:30:08.045Z,1008.1
2022-08-26T05:31:17.237Z,1008.1
2022-08-26T05:32:26.408Z,1008.1
2022-08-26T05:33:35.570Z,1008.1
2022-08-26T05:34:44.743Z,1008.2
2022-08-26T05:35:52.923Z,1008.1
2022-08-26T05:37:02.112Z,1008.2
2022-08-26T05:38:11.299Z,1008.1
2022-08-26T05:39:20.448Z,1008.2
2022-08-26T05:40:29.624Z,1008.1
2022-08-26T05:41:38.781Z,1008.2
2022-08-26T05:42:47.963Z,1008.2
2022-08-26T05:43:57.133Z,1008.2
2022-08-26T05:45:06.306Z,1008.2
2022-08-26T05:46:14.505Z,1008.2
2022-08-26T05:47:22.704Z,1008.3
2022-08-26T05:48:31.878Z,1008.3
2022-08-26T05:49:41.039Z,1008.3
2022-08-26T05:50:50.214Z,1008.3
2022-08-26T05:51:58.404Z,1008.3
2022-08-26T05:53:06.594Z,1008.3
2022-08-26T05:54:15.763Z,1008.3
2022-08-26T05:55:24.932Z,1008.4
2022-08-26T05:56:34.102Z,1008.4
2022-08-26T05:57:43.267Z,1008.4
2022-08-26T05:58:52.452Z,1008.4
2022-08-26T06:00:01.634Z,1008.4
2022-08-26T06:01:10.805Z,1008.4
2022-08-26T06:02:19.962Z,1008.4
2022-08-26T06:03:29.142Z,1008.4
2022-08-26T06:04:38.306Z,1008.4
2022-08-26T06:05:47.476Z,1008.4
2022-08-26T06:06:56.679Z,1008.5
2022-08-26T06:08:04.852Z,1008.4
2022-08-26T06:09:14.031Z,1008.4
2022-08-26T06:10:23.195Z,1008.4
2022-08-26T06:11:32.356Z,1008.4
2022-08-26T06:12:41.531Z,1008.5
2022-08-26T06:13:50.713Z,1008.5
2022-08-26T06:14:59.887Z,1008.5
2022-08-26T06:16:09.055Z,1008.5
2022-08-26T06:17:18.222Z,1008.5
2022-08-26T06:18:27.395Z,1008.6
2022-08-26T06:19:36.570Z,1008.5
2022-08-26T06:20:45.733Z,1008.5
2022-08-26T06:21:54.899Z,1008.5
2022-08-26T06:23:03.093Z,1008.5
2022-08-26T06:24:12.304Z,1008.5
2022-08-26T06:25:21.480Z,1008.6
2022-08-26T06:26:30.649Z,1008.5
2022-08-26T06:27:39.840Z,1008.6
2022-08-26T06:28:48.990Z,1008.6
2022-08-26T06:29:58.161Z,1008.6
2022-08-26T06:31:07.333Z,1008.6
2022-08-26T06:32:16.504Z,1008.6
2022-08-26T06:33:25.694Z,1008.7
2022-08-26T06:34:34.841Z,1008.7
2022-08-26T06:35:44.025Z,1008.6
2022-08-26T06:36:53.193Z,1008.7
2022-08-26T06:38:01.386Z,1008.7
2022-08-26T06:39:10.549Z,1008.7
2022-08-26T06:40:19.732Z,1008.8
2022-08-26T06:41:28.942Z,1008.8
2022-08-26T06:42:38.067Z,1008.8
2022-08-26T06:43:47.246Z,1008.8
2022-08-26T06:44:56.430Z,1008.8
2022-08-26T06:46:05.680Z,1008.8
2022-08-26T06:47:14.761Z,1008.8
2022-08-26T06:48:23.932Z,1008.8
2022-08-26T06:49:33.101Z,1008.8
2022-08-26T06:50:42.290Z,1008.8
2022-08-26T06:51:51.451Z,1008.8
2022-08-26T06:52:59.633Z,1008.7
2022-08-26T06:54:08.815Z,1008.8
2022-08-26T06:55:17.991Z,1008.8
2022-08-26T06:56:27.155Z,1008.8
2022-08-26T06:57:36.323Z,1008.8
2022-08-26T06:58:45.504Z,1008.8
2022-08-26T06:59:54.676Z,1008.8
2022-08-26T07:01:03.856Z,1008.8
2022-08-26T07:02:13.019Z,1008.9
2022-08-26T07:03:22.196Z,1008.8
2022-08-26T07:04:31.370Z,1008.9
2022-08-26T07:05:40.537Z,1008.8
2022-08-26T07:06:49.711Z,1008.9
2022-08-26T07:07:57.889Z,1008.8
2022-08-26T07:09:07.059Z,1008.8
2022-08-26T07:11:25.408Z,1008.8
2022-08-26T07:12:34.585Z,1008.9
2022-08-26T07:13:43.768Z,1008.8
2022-08-26T07:14:52.938Z,1008.8
2022-08-26T07:16:02.098Z,1008.8
2022-08-26T07:17:11.282Z,1008.8
2022-08-26T07:18:20.452Z,1008.9
2022-08-26T07:19:29.629Z,1008.8
2022-08-26T07:20:38.794Z,1008.9
2022-08-26T07:21:47.963Z,1008.9
2022-08-26T07:22:56.161Z,1008.8
2022-08-26T07:24:05.328Z,1008.8
2022-08-26T07:25:14.490Z,1008.9
2022-08-26T07:26:23.670Z,1008.9
2022-08-26T07:27:32.843Z,1008.8
2022-08-26T07:28:42.015Z,1008.8
2022-08-26T07:29:51.184Z,1008.9
2022-08-26T07:31:00.364Z,1008.9
2022-08-26T07:32:09.529Z,1008.9
2022-08-26T07:33:18.707Z,1008.9
2022-08-26T07:34:27.873Z,1008.9
2022-08-26T07:35:37.055Z,1009
2022-08-26T07:36:46.219Z,1009
2022-08-26T07:37:54.406Z,1009
2022-08-26T07:39:03.591Z,1009
2022-08-26T07:40:12.756Z,1009
2022-08-26T07:41:21.944Z,1009
2022-08-26T07:42:31.107Z,1009.1
2022-08-26T07:43:40.278Z,1009.1
2022-08-26T07:44:49.465Z,1009.1
2022-08-26T07:45:58.609Z,1009.1
2022-08-26T07:47:07.798Z,1009.1
2022-08-26T07:48:16.971Z,1009.1
2022-08-26T07:49:26.130Z,1009.1
2022-08-26T07:50:35.306Z,1009.1
2022-08-26T07:51:44.478Z,1009.2
2022-08-26T07:52:52.670Z,1009.2
2022-08-26T07:54:01.874Z,1009.2
2022-08-26T07:55:11.010Z,1009.2
2022-08-26T07:56:20.191Z,1009.2
2022-08-26T07:57:29.374Z,1009.2
2022-08-26T07:58:38.524Z,1009.2
2022-08-26T07:59:47.711Z,1009.2
2022-08-26T08:00:56.872Z,1009.2
2022-08-26T08:02:06.048Z,1009.3
2022-08-26T08:03:15.221Z,1009.3
2022-08-26T08:04:24.388Z,1009.2
2022-08-26T08:05:33.565Z,1009.3
2022-08-26T08:06:42.744Z,1009.3
2022-08-26T08:07:50.927Z,1009.3
2022-08-26T08:09:00.102Z,1009.3
2022-08-26T08:10:09.269Z,1009.3
2022-08-26T08:11:18.441Z,1009.3
2022-08-26T08:12:27.613Z,1009.3
2022-08-26T08:13:35.808Z,1009.3
2022-08-26T08:14:44.988Z,1009.3
2022-08-26T08:15:54.148Z,1009.3
2022-08-26T08:17:03.315Z,1009.4
2022-08-26T08:18:12.498Z,1009.4
2022-08-26T08:19:21.669Z,1009.4
2022-08-26T08:20:30.839Z,1009.3
2022-08-26T08:21:40.004Z,1009.4
2022-08-26T08:22:49.193Z,1009.3
2022-08-26T08:23:58.367Z,1009.4
2022-08-26T08:25:07.534Z,1009.4
2022-08-26T08:26:16.705Z,1009.4
2022-08-26T08:27:25.886Z,1009.4
2022-08-26T08:29:43.240Z,1009.4
2022-08-26T08:30:52.414Z,1009.4
2022-08-26T08:32:01.578Z,1009.4
2022-08-26T08:33:10.756Z,1009.4
2022-08-26T08:34:19.925Z,1009.4
2022-08-26T08:35:29.105Z,1009.4
2022-08-26T08:36:38.266Z,1009.3
2022-08-26T08:37:47.441Z,1009.3
2022-08-26T08:38:56.618Z,1009.3
2022-08-26T08:40:05.789Z,1009.3
2022-08-26T08:41:14.955Z,1009.4
2022-08-26T08:42:24.146Z,1009.4
2022-08-26T08:44:41.515Z,1009.4
2022-08-26T08:45:50.670Z,1009.4
2022-08-26T08:46:59.840Z,1009.4
2022-08-26T08:48:09.006Z,1009.4
2022-08-26T08:49:18.190Z,1009.4
2022-08-26T08:50:27.356Z,1009.4
2022-08-26T08:51:36.533Z,1009.4
2022-08-26T08:52:45.716Z,1009.4
2022-08-26T08:53:54.873Z,1009.4
2022-08-26T08:55:04.061Z,1009.4
2022-08-26T08:56:12.240Z,1009.4
2022-08-26T08:57:20.434Z,1009.4
2022-08-26T08:58:28.628Z,1009.4
2022-08-26T08:59:36.811Z,1009.3
2022-08-26T09:00:46.000Z,1009.4
2022-08-26T09:01:55.163Z,1009.3
2022-08-26T09:03:04.334Z,1009.4
2022-08-26T09:04:13.512Z,1009.4
2022-08-26T09:05:22.676Z,1009.4
2022-08-26T09:06:31.842Z,1009.4
2022-08-26T09:07:41.032Z,1009.4
2022-08-26T09:08:50.214Z,1009.4
2022-08-26T09:09:59.371Z,1009.4
2022-08-26T09:11:08.541Z,1009.4
2022-08-26T09:12:17.711Z,1009.4
2022-08-26T09:13:26.886Z,1009.5
2022-08-26T09:14:35.086Z,1009.5
2022-08-26T09:15:44.241Z,1009.4
2022-08-26T09:16:53.413Z,1009.4
2022-08-26T09:18:02.593Z,1009.4
2022-08-26T09:19:11.756Z,1009.5
2022-08-26T09:20:20.946Z,1009.5
2022-08-26T09:21:30.112Z,1009.4
2022-08-26T09:22:38.306Z,1009.5
2022-08-26T09:23:46.494Z,1009.5
2022-08-26T09:24:55.659Z,1009.5
2022-08-26T09:26:04.830Z,1009.5
2022-08-26T09:27:14.014Z,1009.5
2022-08-26T09:28:23.183Z,1009.5
2022-08-26T09:29:32.365Z,1009.5
2022-08-26T09:30:41.537Z,1009.5
2022-08-26T09:31:50.697Z,1009.4
2022-08-26T09:32:59.882Z,1009.5
2022-08-26T09:34:08.074Z,1009.5
2022-08-26T09:35:16.255Z,1009.5
2022-08-26T09:36:25.438Z,1009.5
2022-08-26T09:37:34.609Z,1009.5
2022-08-26T09:38:43.774Z,1009.5
2022-08-26T09:39:52.947Z,1009.5
2022-08-26T09:41:02.119Z,1009.5
2022-08-26T09:42:11.286Z,1009.5
2022-08-26T09:43:20.461Z,1009.5
2022-08-26T09:44:29.648Z,1009.6
2022-08-26T09:45:38.804Z,1009.6
2022-08-26T09:46:47.984Z,1009.6
2022-08-26T09:47:57.154Z,1009.5
2022-08-26T09:49:06.342Z,1009.5
2022-08-26T09:50:14.524Z,1009.5
2022-08-26T09:51:23.694Z,1009.5
2022-08-26T09:52:32.861Z,1009.5
2022-08-26T09:53:42.035Z,1009.5
2022-08-26T09:54:51.205Z,1009.5
2022-08-26T09:56:00.375Z,1009.6
2022-08-26T09:57:09.554Z,1009.6
2022-08-26T09:58:18.729Z,1009.5
2022-08-26T09:59:27.900Z,1009.6
2022-08-26T10:00:37.087Z,1009.6
2022-08-26T10:01:46.245Z,1009.6
2022-08-26T10:02:55.413Z,1009.6
2022-08-26T10:04:04.598Z,1009.5
2022-08-26T10:05:13.768Z,1009.5
2022-08-26T10:06:21.950Z,1009.5
2022-08-26T10:07:31.129Z,1009.5
2022-08-26T10:08:40.307Z,1009.5
2022-08-26T10:09:49.472Z,1009.5
2022-08-26T10:10:58.643Z,1009.5
2022-08-26T10:12:07.825Z,1009.5
2022-08-26T10:13:17.007Z,1009.5
2022-08-26T10:14:26.186Z,1009.5
2022-08-26T10:15:35.332Z,1009.5
2022-08-26T10:16:44.508Z,1009.4
2022-08-26T10:17:53.682Z,1009.4
2022-08-26T10:19:02.850Z,1009.4
2022-08-26T10:20:12.030Z,1009.3
2022-08-26T10:21:20.218Z,1009.4
2022-08-26T10:22:29.390Z,1009.3
2022-08-26T10:23:38.547Z,1009.4
2022-08-26T10:24:47.718Z,1009.4
2022-08-26T10:25:56.901Z,1009.3
2022-08-26T10:27:06.073Z,1009.4
2022-08-26T10:28:15.250Z,1009.3
2022-08-26T10:29:24.419Z,1009.3
2022-08-26T10:30:33.584Z,1009.4
2022-08-26T10:31:42.754Z,1009.3
2022-08-26T10:32:51.943Z,1009.3
2022-08-26T10:34:01.103Z,1009.3
2022-08-26T10:35:10.272Z,1009.3
2022-08-26T10:36:18.462Z,1009.3
2022-08-26T10:37:27.639Z,1009.3
2022-08-26T10:38:36.810Z,1009.3
2022-08-26T10:39:45.978Z,1009.2
2022-08-26T10:40:55.144Z,1009.3
2022-08-26T10:42:04.316Z,1009.2
2022-08-26T10:43:13.495Z,1009.1
2022-08-26T10:44:22.667Z,1009.2
2022-08-26T10:45:31.838Z,1009.2
2022-08-26T10:46:41.007Z,1009.2
2022-08-26T10:47:50.190Z,1009.2
2022-08-26T10:48:59.364Z,1009.2
2022-08-26T10:50:08.527Z,1009.2
2022-08-26T10:51:16.721Z,1009.2
2022-08-26T10:52:25.891Z,1009.2
2022-08-26T10:53:35.056Z,1009.2
2022-08-26T10:54:44.239Z,1009.2
2022-08-26T10:55:53.409Z,1009.2
2022-08-26T10:57:02.572Z,1009.2
2022-08-26T10:58:11.761Z,1009.2
2022-08-26T10:59:20.917Z,1009.2
2022-08-26T11:00:30.093Z,1009.3
2022-08-26T11:01:39.269Z,1009.2
2022-08-26T11:02:48.442Z,1009.2
2022-08-26T11:03:57.609Z,1009.2
2022-08-26T11:05:06.783Z,1009.2
2022-08-26T11:06:14.972Z,1009.2
2022-08-26T11:07:24.144Z,1009.2
2022-08-26T11:08:33.326Z,1009.2
2022-08-26T11:09:42.488Z,1009.2
2022-08-26T11:10:51.658Z,1009.2
2022-08-26T11:12:00.853Z,1009.3
2022-08-26T11:13:10.015Z,1009.2
2022-08-26T11:14:19.190Z,1009.1
2022-08-26T11:15:28.352Z,1009.2
2022-08-26T11:16:37.526Z,1009.2
2022-08-26T11:17:46.707Z,1009.3
2022-08-26T11:18:55.875Z,1009.2
2022-08-26T11:20:05.048Z,1009.2
2022-08-26T11:21:14.215Z,1009.2
2022-08-26T11:22:22.410Z,1009.2
2022-08-26T11:23:31.595Z,1009.2
2022-08-26T11:24:40.760Z,1009.1
2022-08-26T11:25:49.922Z,1009.1
2022-08-26T11:26:59.087Z,1009.1
2022-08-26T11:28:08.273Z,1009.2
2022-08-26T11:29:17.446Z,1009.1
2022-08-26T11:30:26.609Z,1009.2
2022-08-26T11:31:35.791Z,1009.2
2022-08-26T11:32:44.955Z,1009.2
2022-08-26T11:33:54.136Z,1009.2
2022-08-26T11:35:03.394Z,1009.2
2022-08-26T11:36:12.484Z,1009.1
2022-08-26T11:37:20.667Z,1009.1
2022-08-26T11:38:29.838Z,1009.2
2022-08-26T11:39:39.012Z,1009.1
2022-08-26T11:40:48.189Z,1009.2
2022-08-26T11:41:57.360Z,1009.1
2022-08-26T11:43:06.530Z,1009.2
2022-08-26T11:44:15.696Z,1009.2
2022-08-26T11:45:25.176Z,1009.2
2022-08-26T11:46:34.045Z,1009.2
2022-08-26T11:47:43.227Z,1009.1
2022-08-26T11:48:52.392Z,1009.2
2022-08-26T11:50:01.568Z,1009.2
2022-08-26T11:51:10.725Z,1009.1
2022-08-26T11:53:29.089Z,1009.2
2022-08-26T11:54:37.278Z,1009.1
2022-08-26T11:55:46.447Z,1009.1
2022-08-26T11:59:13.959Z,1009.1
2022-08-26T12:00:22.152Z,1009.1
2022-08-26T12:01:31.327Z,1009.1
2022-08-26T12:02:40.499Z,1009.1
2022-08-26T12:04:57.864Z,1009
2022-08-26T12:06:06.060Z,1009
2022-08-26T12:07:15.227Z,1009
2022-08-26T12:08:24.397Z,1009
2022-08-26T12:09:33.564Z,1009
2022-08-26T12:10:42.756Z,1009
2022-08-26T12:11:51.939Z,1009
2022-08-26T12:13:01.085Z,1009
2022-08-26T12:14:10.262Z,1009
2022-08-26T12:15:19.437Z,1008.9
2022-08-26T12:16:28.620Z,1009
2022-08-26T12:17:37.774Z,1008.9
2022-08-26T12:18:46.946Z,1008.8
2022-08-26T12:19:56.116Z,1008.9
2022-08-26T12:21:04.325Z,1008.9
2022-08-26T12:22:13.479Z,1008.8
2022-08-26T12:23:22.646Z,1008.9
2022-08-26T12:24:31.832Z,1008.8
2022-08-26T12:25:40.017Z,1008.7
2022-08-26T12:26:48.208Z,1008.7
2022-08-26T12:27:57.382Z,1008.8
2022-08-26T12:29:06.555Z,1008.8
2022-08-26T12:30:15.736Z,1008.8
2022-08-26T12:31:24.918Z,1008.8
2022-08-26T12:32:34.073Z,1008.7
2022-08-26T12:33:43.249Z,1008.7
2022-08-26T12:34:52.446Z,1008.7
2022-08-26T12:36:01.600Z,1008.7
2022-08-26T12:37:10.790Z,1008.7
2022-08-26T12:38:19.939Z,1008.7
2022-08-26T12:39:29.135Z,1008.6
2022-08-26T12:40:38.285Z,1008.6
2022-08-26T12:41:46.475Z,1008.7
2022-08-26T12:42:55.635Z,1008.6
2022-08-26T12:44:04.819Z,1008.7
2022-08-26T12:45:13.982Z,1008.6
2022-08-26T12:46:23.160Z,1008.6
2022-08-26T12:47:32.330Z,1008.6
2022-08-26T12:48:41.504Z,1008.7
2022-08-26T12:49:50.683Z,1008.6
2022-08-26T12:50:59.853Z,1008.6
2022-08-26T12:52:09.026Z,1008.6
2022-08-26T12:53:18.195Z,1008.6
2022-08-26T12:54:27.363Z,1008.6
2022-08-26T12:55:36.547Z,1008.5
2022-08-26T12:56:44.752Z,1008.5
2022-08-26T12:57:52.924Z,1008.5
2022-08-26T12:59:01.104Z,1008.6
2022-08-26T13:00:10.290Z,1008.6
2022-08-26T13:01:18.483Z,1008.6
2022-08-26T13:02:26.671Z,1008.5
2022-08-26T13:03:35.843Z,1008.5
2022-08-26T13:04:45.008Z,1008.5
2022-08-26T13:05:54.180Z,1008.5
2022-08-26T13:07:03.362Z,1008.5
2022-08-26T13:08:12.551Z,1008.5
2022-08-26T13:09:21.706Z,1008.5
2022-08-26T13:10:30.879Z,1008.5
2022-08-26T13:11:40.045Z,1008.3
2022-08-26T13:12:49.218Z,1008.3
2022-08-26T13:13:58.388Z,1008.4
2022-08-26T13:15:07.583Z,1008.4
2022-08-26T13:16:16.744Z,1008.3
2022-08-26T13:17:24.924Z,1008.3
2022-08-26T13:18:34.093Z,1008.3
2022-08-26T13:19:43.266Z,1008.3
2022-08-26T13:20:52.447Z,1008.2
2022-08-26T13:22:01.634Z,1008.1
2022-08-26T13:23:10.800Z,1008.3
2022-08-26T13:24:19.960Z,1008.3
2022-08-26T13:25:29.155Z,1008.2
2022-08-26T13:26:38.302Z,1008.1
2022-08-26T13:27:47.472Z,1008.1
2022-08-26T13:28:56.654Z,1008
2022-08-26T13:30:05.835Z,1008.2
2022-08-26T13:31:14.992Z,1008.2
2022-08-26T13:32:23.178Z,1008.2
2022-08-26T13:33:32.352Z,1008.2
2022-08-26T13:34:41.537Z,1008.3
2022-08-26T13:35:50.730Z,1008.2
2022-08-26T13:36:59.887Z,1008.2
2022-08-26T13:38:09.055Z,1008.1
2022-08-26T13:39:18.226Z,1008.2
2022-08-26T13:40:27.402Z,1008.2
2022-08-26T13:41:36.567Z,1008.2
2022-08-26T13:42:45.739Z,1008.2
2022-08-26T13:43:54.913Z,1008.2
2022-08-26T13:45:04.081Z,1008.2
2022-08-26T13:46:13.265Z,1008.2
2022-08-26T13:48:30.633Z,1008.3
2022-08-26T13:49:39.799Z,1008.2
2022-08-26T13:50:48.959Z,1008.2
2022-08-26T13:51:58.126Z,1008.3
2022-08-26T13:53:07.299Z,1008.3
2022-08-26T13:54:16.491Z,1008.4
2022-08-26T13:55:25.656Z,1008.3
2022-08-26T13:56:34.823Z,1008.4
2022-08-26T13:57:44.005Z,1008.4
2022-08-26T13:58:53.168Z,1008.4
2022-08-26T14:00:02.351Z,1008.4
2022-08-26T14:01:11.521Z,1008.4
2022-08-26T14:02:19.699Z,1008.4
2022-08-26T14:03:28.871Z,1008.4
2022-08-26T14:04:38.044Z,1008.5
2022-08-26T14:05:47.227Z,1008.5
2022-08-26T14:06:55.413Z,1008.5
2022-08-26T14:08:03.601Z,1008.4
2022-08-26T14:09:11.799Z,1008.4
2022-08-26T14:10:19.990Z,1008.4
2022-08-26T14:11:29.163Z,1008.5
2022-08-26T14:12:38.337Z,1008.6
2022-08-26T14:13:47.517Z,1008.4
2022-08-26T14:14:56.680Z,1008.5
2022-08-26T14:16:05.845Z,1008.5
2022-08-26T14:17:15.027Z,1008.5
2022-08-26T14:18:24.200Z,1008.4
2022-08-26T14:19:33.369Z,1008.5
2022-08-26T14:20:42.543Z,1008.5
2022-08-26T14:21:51.710Z,1008.6
2022-08-26T14:23:00.881Z,1008.5
2022-08-26T14:24:10.064Z,1008.6
2022-08-26T14:25:18.249Z,1008.6
2022-08-26T14:26:27.421Z,1008.6
2022-08-26T14:27:36.592Z,1008.7
2022-08-26T14:28:45.776Z,1008.7
2022-08-26T14:29:54.939Z,1008.7
2022-08-26T14:31:04.107Z,1008.7
2022-08-26T14:32:13.281Z,1008.7
2022-08-26T14:33:22.454Z,1008.7
2022-08-26T14:34:31.623Z,1008.7
2022-08-26T14:35:40.811Z,1008.7